Terminal Aerodrome Forecast
Issued by NWS San Angelo, TX

Home | Current Version | Previous Version | Text Only | Print | Product List | Glossary On
Versions: 1 2 3 4 5 6 7 8 9 10 11 12 13 14
878
FTUS44 KSJT 191320 AAA
TAFABI
TAF AMD
KABI 191320Z 1913/2012 16012KT P6SM OVC008
     FM191700 17011KT P6SM OVC015
     FM191900 18009KT P6SM SCT025 BKN035
     FM200000 16006KT P6SM VCSH BKN035
      TEMPO 2000/2002 4SM TSRA OVC012CB=

USA.gov is the U.S. government's official web portal to all federal, state and local government web resources and services.